KLO weather

Kalibo International Airport
Kalibo, Aklan Province, Philippines

Public forecast

Using degrees Celsius for public forecast. Weather courtesy of forecast.io.

Current aviation weather report (METAR) for Kalibo International Airport

Report is more than 6 hours old.

Retrieved 2019/09/23 20:00 UTC (25 days ago):

RPVK 232000Z 16003KT 9000 FEW016 BKN240 24/23 Q1011 RMK A2985

Aviation forecast (TAF) for Kalibo International Airport

Forecast is more than 12 hours old.

Retrieved 2019/09/28 00:30 UTC (21 days ago):

TAF RPVK 272300Z 2800/2824 23006KT 9999 FEW016 SCT240 TEMPO 2800/2806 06008KT SCT016 BKN240